sensor_id;sensor_type;location;lat;lon;timestamp;P1;durP1;ratioP1;P2;durP2;ratioP2
9108;SDS011;4590;51.462;6.692;2023-04-01T00:01:19;3.07;;;0.90;;
9108;SDS011;4590;51.462;6.692;2023-04-01T00:03:45;3.67;;;1.23;;
9108;SDS011;4590;51.462;6.692;2023-04-01T00:06:14;2.67;;;0.90;;
9108;SDS011;4590;51.462;6.692;2023-04-01T00:08:40;2.95;;;0.82;;
9108;SDS011;4590;51.462;6.692;2023-04-01T00:11:06;3.50;;;0.80;;
9108;SDS011;4590;51.462;6.692;2023-04-01T00:13:31;3.03;;;0.90;;
9108;SDS011;4590;51.462;6.692;2023-04-01T00:15:56;4.30;;;1.20;;
9108;SDS011;4590;51.462;6.692;2023-04-01T00:18:21;2.90;;;0.80;;
9108;SDS011;4590;51.462;6.692;2023-04-01T00:20:48;3.40;;;0.80;;
9108;SDS011;4590;51.462;6.692;2023-04-01T00:23:15;3.13;;;0.93;;
9108;SDS011;4590;51.462;6.692;2023-04-01T00:25:41;3.55;;;1.02;;
9108;SDS011;4590;51.462;6.692;2023-04-01T00:28:07;2.00;;;0.75;;
9108;SDS011;4590;51.462;6.692;2023-04-01T00:30:32;2.13;;;0.60;;
9108;SDS011;4590;51.462;6.692;2023-04-01T00:32:57;2.47;;;0.90;;
9108;SDS011;4590;51.462;6.692;2023-04-01T00:35:23;2.53;;;0.63;;
9108;SDS011;4590;51.462;6.692;2023-04-01T00:37:48;2.63;;;0.80;;
9108;SDS011;4590;51.462;6.692;2023-04-01T00:40:25;3.05;;;0.60;;
9108;SDS011;4590;51.462;6.692;2023-04-01T00:42:56;3.03;;;1.00;;
9108;SDS011;4590;51.462;6.692;2023-04-01T00:47:59;2.65;;;0.70;;
9108;SDS011;4590;51.462;6.692;2023-04-01T00:50:29;3.58;;;0.70;;
9108;SDS011;4590;51.462;6.692;2023-04-01T00:52:55;2.13;;;0.70;;
9108;SDS011;4590;51.462;6.692;2023-04-01T00:55:22;1.80;;;0.77;;
9108;SDS011;4590;51.462;6.692;2023-04-01T01:00:15;3.50;;;0.63;;
9108;SDS011;4590;51.462;6.692;2023-04-01T01:02:43;3.08;;;0.85;;
9108;SDS011;4590;51.462;6.692;2023-04-01T01:05:13;1.85;;;0.50;;
9108;SDS011;4590;51.462;6.692;2023-04-01T01:07:43;1.83;;;0.52;;
9108;SDS011;4590;51.462;6.692;2023-04-01T01:10:18;1.75;;;0.43;;
9108;SDS011;4590;51.462;6.692;2023-04-01T01:12:59;1.75;;;0.70;;
9108;SDS011;4590;51.462;6.692;2023-04-01T01:16:08;1.45;;;0.50;;
9108;SDS011;4590;51.462;6.692;2023-04-01T01:18:44;1.70;;;0.47;;
9108;SDS011;4590;51.462;6.692;2023-04-01T01:27:11;3.60;;;0.65;;
9108;SDS011;4590;51.462;6.692;2023-04-01T01:35:26;2.70;;;0.60;;
9108;SDS011;4590;51.462;6.692;2023-04-01T01:37:56;2.22;;;0.50;;
9108;SDS011;4590;51.462;6.692;2023-04-01T01:40:26;2.47;;;0.77;;
9108;SDS011;4590;51.462;6.692;2023-04-01T01:42:55;2.50;;;0.73;;
9108;SDS011;4590;51.462;6.692;2023-04-01T01:45:25;3.42;;;0.43;;
9108;SDS011;4590;51.462;6.692;2023-04-01T01:47:52;1.35;;;0.40;;
9108;SDS011;4590;51.462;6.692;2023-04-01T01:50:19;2.35;;;0.73;;
9108;SDS011;4590;51.462;6.692;2023-04-01T01:52:46;2.50;;;0.60;;
9108;SDS011;4590;51.462;6.692;2023-04-01T01:57:55;2.58;;;0.52;;
9108;SDS011;4590;51.462;6.692;2023-04-01T02:00:33;1.20;;;0.50;;
9108;SDS011;4590;51.462;6.692;2023-04-01T02:02:59;1.85;;;0.40;;
9108;SDS011;4590;51.462;6.692;2023-04-01T02:05:25;0.88;;;0.40;;
9108;SDS011;4590;51.462;6.692;2023-04-01T02:07:57;1.52;;;0.50;;
9108;SDS011;4590;51.462;6.692;2023-04-01T02:10:31;1.48;;;0.55;;
9108;SDS011;4590;51.462;6.692;2023-04-01T02:13:04;2.05;;;0.60;;
9108;SDS011;4590;51.462;6.692;2023-04-01T02:15:37;1.02;;;0.50;;
9108;SDS011;4590;51.462;6.692;2023-04-01T02:18:07;1.65;;;0.50;;
9108;SDS011;4590;51.462;6.692;2023-04-01T02:20:33;1.27;;;0.55;;
9108;SDS011;4590;51.462;6.692;2023-04-01T02:23:01;0.98;;;0.40;;
9108;SDS011;4590;51.462;6.692;2023-04-01T02:25:27;1.02;;;0.50;;
9108;SDS011;4590;51.462;6.692;2023-04-01T02:27:55;1.33;;;0.60;;
9108;SDS011;4590;51.462;6.692;2023-04-01T02:30:23;1.40;;;0.60;;
9108;SDS011;4590;51.462;6.692;2023-04-01T02:32:50;1.10;;;0.40;;
9108;SDS011;4590;51.462;6.692;2023-04-01T02:35:17;1.20;;;0.52;;
9108;SDS011;4590;51.462;6.692;2023-04-01T02:40:10;2.08;;;0.60;;
9108;SDS011;4590;51.462;6.692;2023-04-01T02:42:37;1.15;;;0.60;;
9108;SDS011;4590;51.462;6.692;2023-04-01T02:45:03;1.67;;;0.60;;
9108;SDS011;4590;51.462;6.692;2023-04-01T02:47:29;2.25;;;0.77;;
9108;SDS011;4590;51.462;6.692;2023-04-01T02:49:54;0.57;;;0.40;;
9108;SDS011;4590;51.462;6.692;2023-04-01T02:52:23;0.90;;;0.30;;
9108;SDS011;4590;51.462;6.692;2023-04-01T02:54:52;1.02;;;0.50;;
9108;SDS011;4590;51.462;6.692;2023-04-01T02:57:18;0.80;;;0.50;;
9108;SDS011;4590;51.462;6.692;2023-04-01T02:59:43;1.57;;;0.60;;
9108;SDS011;4590;51.462;6.692;2023-04-01T03:02:09;1.37;;;0.50;;
9108;SDS011;4590;51.462;6.692;2023-04-01T03:04:34;1.93;;;0.70;;
9108;SDS011;4590;51.462;6.692;2023-04-01T03:07:00;1.63;;;0.67;;
9108;SDS011;4590;51.462;6.692;2023-04-01T03:09:25;2.03;;;0.63;;
9108;SDS011;4590;51.462;6.692;2023-04-01T03:11:50;1.50;;;0.87;;
9108;SDS011;4590;51.462;6.692;2023-04-01T03:14:16;1.17;;;0.67;;
9108;SDS011;4590;51.462;6.692;2023-04-01T03:16:41;1.50;;;0.77;;
9108;SDS011;4590;51.462;6.692;2023-04-01T03:19:06;2.03;;;0.67;;
9108;SDS011;4590;51.462;6.692;2023-04-01T03:21:31;2.23;;;1.10;;
9108;SDS011;4590;51.462;6.692;2023-04-01T03:23:57;2.17;;;0.80;;
9108;SDS011;4590;51.462;6.692;2023-04-01T03:26:23;1.20;;;0.65;;
9108;SDS011;4590;51.462;6.692;2023-04-01T03:28:49;2.50;;;0.60;;
9108;SDS011;4590;51.462;6.692;2023-04-01T03:31:14;2.20;;;0.77;;
9108;SDS011;4590;51.462;6.692;2023-04-01T03:36:06;2.22;;;0.90;;
9108;SDS011;4590;51.462;6.692;2023-04-01T03:38:32;2.40;;;0.80;;
9108;SDS011;4590;51.462;6.692;2023-04-01T03:40:58;1.40;;;0.60;;
9108;SDS011;4590;51.462;6.692;2023-04-01T03:43:24;1.40;;;0.53;;
9108;SDS011;4590;51.462;6.692;2023-04-01T03:45:51;1.45;;;0.68;;
9108;SDS011;4590;51.462;6.692;2023-04-01T03:48:16;1.05;;;0.60;;
9108;SDS011;4590;51.462;6.692;2023-04-01T03:50:42;1.40;;;0.82;;
9108;SDS011;4590;51.462;6.692;2023-04-01T03:53:08;1.20;;;0.73;;
9108;SDS011;4590;51.462;6.692;2023-04-01T03:55:35;2.03;;;0.90;;
9108;SDS011;4590;51.462;6.692;2023-04-01T03:58:01;1.83;;;0.98;;
9108;SDS011;4590;51.462;6.692;2023-04-01T04:00:27;1.40;;;0.73;;
9108;SDS011;4590;51.462;6.692;2023-04-01T04:02:54;1.10;;;0.70;;
9108;SDS011;4590;51.462;6.692;2023-04-01T04:05:21;1.40;;;0.90;;
9108;SDS011;4590;51.462;6.692;2023-04-01T04:07:47;1.85;;;0.88;;
9108;SDS011;4590;51.462;6.692;2023-04-01T04:10:12;2.63;;;1.27;;
9108;SDS011;4590;51.462;6.692;2023-04-01T04:12:38;3.87;;;1.10;;
9108;SDS011;4590;51.462;6.692;2023-04-01T04:15:03;1.43;;;0.90;;
9108;SDS011;4590;51.462;6.692;2023-04-01T04:17:28;2.20;;;1.30;;
9108;SDS011;4590;51.462;6.692;2023-04-01T04:19:54;2.67;;;1.10;;
9108;SDS011;4590;51.462;6.692;2023-04-01T04:22:19;1.60;;;0.90;;
9108;SDS011;4590;51.462;6.692;2023-04-01T04:24:44;2.13;;;1.20;;
9108;SDS011;4590;51.462;6.692;2023-04-01T04:27:10;3.07;;;1.50;;
9108;SDS011;4590;51.462;6.692;2023-04-01T04:29:35;1.87;;;1.10;;
9108;SDS011;4590;51.462;6.692;2023-04-01T04:32:00;1.80;;;1.07;;
9108;SDS011;4590;51.462;6.692;2023-04-01T04:34:26;1.57;;;1.20;;
9108;SDS011;4590;51.462;6.692;2023-04-01T04:36:51;2.43;;;1.07;;
9108;SDS011;4590;51.462;6.692;2023-04-01T04:39:16;0.93;;;0.80;;
9108;SDS011;4590;51.462;6.692;2023-04-01T04:41:42;1.07;;;0.80;;
9108;SDS011;4590;51.462;6.692;2023-04-01T04:44:07;1.30;;;0.80;;
9108;SDS011;4590;51.462;6.692;2023-04-01T04:46:33;1.85;;;0.90;;
9108;SDS011;4590;51.462;6.692;2023-04-01T04:48:58;1.63;;;0.90;;
9108;SDS011;4590;51.462;6.692;2023-04-01T04:51:23;1.47;;;0.80;;
9108;SDS011;4590;51.462;6.692;2023-04-01T04:53:49;1.40;;;0.90;;
9108;SDS011;4590;51.462;6.692;2023-04-01T04:56:19;1.63;;;1.00;;
9108;SDS011;4590;51.462;6.692;2023-04-01T04:58:45;1.40;;;1.10;;
9108;SDS011;4590;51.462;6.692;2023-04-01T05:01:11;1.37;;;0.93;;
9108;SDS011;4590;51.462;6.692;2023-04-01T05:03:38;1.95;;;1.00;;
9108;SDS011;4590;51.462;6.692;2023-04-01T05:06:04;1.40;;;1.00;;
9108;SDS011;4590;51.462;6.692;2023-04-01T05:10:55;1.13;;;1.00;;
9108;SDS011;4590;51.462;6.692;2023-04-01T05:13:20;1.40;;;1.20;;
9108;SDS011;4590;51.462;6.692;2023-04-01T05:15:46;1.50;;;1.13;;
9108;SDS011;4590;51.462;6.692;2023-04-01T05:18:11;2.33;;;1.13;;
9108;SDS011;4590;51.462;6.692;2023-04-01T05:20:36;1.80;;;1.10;;
9108;SDS011;4590;51.462;6.692;2023-04-01T05:23:02;1.50;;;0.95;;
9108;SDS011;4590;51.462;6.692;2023-04-01T05:25:28;2.08;;;1.10;;
9108;SDS011;4590;51.462;6.692;2023-04-01T05:27:53;1.90;;;1.10;;
9108;SDS011;4590;51.462;6.692;2023-04-01T05:30:19;2.73;;;1.40;;
9108;SDS011;4590;51.462;6.692;2023-04-01T05:32:44;1.65;;;1.35;;
9108;SDS011;4590;51.462;6.692;2023-04-01T05:35:10;1.60;;;1.40;;
9108;SDS011;4590;51.462;6.692;2023-04-01T05:37:35;2.33;;;1.70;;
9108;SDS011;4590;51.462;6.692;2023-04-01T05:40:01;2.08;;;1.60;;
9108;SDS011;4590;51.462;6.692;2023-04-01T05:42:27;2.63;;;2.25;;
9108;SDS011;4590;51.462;6.692;2023-04-01T05:44:53;1.93;;;1.57;;
9108;SDS011;4590;51.462;6.692;2023-04-01T05:47:18;3.17;;;1.70;;
9108;SDS011;4590;51.462;6.692;2023-04-01T05:49:43;2.00;;;1.77;;
9108;SDS011;4590;51.462;6.692;2023-04-01T05:52:09;2.37;;;1.80;;
9108;SDS011;4590;51.462;6.692;2023-04-01T05:54:34;2.10;;;1.90;;
9108;SDS011;4590;51.462;6.692;2023-04-01T05:56:59;5.33;;;2.10;;
9108;SDS011;4590;51.462;6.692;2023-04-01T05:59:25;2.00;;;1.77;;
9108;SDS011;4590;51.462;6.692;2023-04-01T06:01:50;3.53;;;2.13;;
9108;SDS011;4590;51.462;6.692;2023-04-01T06:04:16;2.07;;;1.77;;
9108;SDS011;4590;51.462;6.692;2023-04-01T06:06:43;2.88;;;2.05;;
9108;SDS011;4590;51.462;6.692;2023-04-01T06:09:27;2.65;;;1.80;;
9108;SDS011;4590;51.462;6.692;2023-04-01T06:12:09;3.45;;;1.98;;
9108;SDS011;4590;51.462;6.692;2023-04-01T06:17:46;2.92;;;1.92;;
9108;SDS011;4590;51.462;6.692;2023-04-01T06:20:23;2.30;;;2.10;;
9108;SDS011;4590;51.462;6.692;2023-04-01T06:23:01;2.78;;;1.80;;
9108;SDS011;4590;51.462;6.692;2023-04-01T06:30:47;2.22;;;1.80;;
9108;SDS011;4590;51.462;6.692;2023-04-01T06:36:56;2.22;;;1.75;;
9108;SDS011;4590;51.462;6.692;2023-04-01T06:39:54;2.38;;;1.90;;
9108;SDS011;4590;51.462;6.692;2023-04-01T06:42:40;2.95;;;1.90;;
9108;SDS011;4590;51.462;6.692;2023-04-01T06:47:58;1.98;;;1.67;;
9108;SDS011;4590;51.462;6.692;2023-04-01T06:50:28;2.60;;;2.05;;
9108;SDS011;4590;51.462;6.692;2023-04-01T06:53:04;2.80;;;2.10;;
9108;SDS011;4590;51.462;6.692;2023-04-01T06:58:31;4.50;;;2.17;;
9108;SDS011;4590;51.462;6.692;2023-04-01T07:03:36;2.35;;;2.15;;
9108;SDS011;4590;51.462;6.692;2023-04-01T07:08:41;4.80;;;2.50;;
9108;SDS011;4590;51.462;6.692;2023-04-01T07:11:10;2.67;;;2.40;;
9108;SDS011;4590;51.462;6.692;2023-04-01T07:13:55;3.30;;;2.35;;
9108;SDS011;4590;51.462;6.692;2023-04-01T07:16:32;3.78;;;2.50;;
9108;SDS011;4590;51.462;6.692;2023-04-01T07:19:14;2.63;;;2.30;;
9108;SDS011;4590;51.462;6.692;2023-04-01T07:21:52;3.40;;;2.45;;
9108;SDS011;4590;51.462;6.692;2023-04-01T07:24:25;2.80;;;2.45;;
9108;SDS011;4590;51.462;6.692;2023-04-01T07:26:54;3.72;;;2.50;;
9108;SDS011;4590;51.462;6.692;2023-04-01T07:29:21;2.33;;;2.10;;
9108;SDS011;4590;51.462;6.692;2023-04-01T07:32:30;3.05;;;2.55;;
9108;SDS011;4590;51.462;6.692;2023-04-01T07:37:56;3.20;;;2.38;;
9108;SDS011;4590;51.462;6.692;2023-04-01T07:51:26;3.65;;;2.92;;
9108;SDS011;4590;51.462;6.692;2023-04-01T08:07:13;4.30;;;2.97;;
9108;SDS011;4590;51.462;6.692;2023-04-01T08:13:01;3.33;;;2.50;;
9108;SDS011;4590;51.462;6.692;2023-04-01T08:15:44;4.30;;;3.13;;
9108;SDS011;4590;51.462;6.692;2023-04-01T08:21:21;3.15;;;2.60;;
9108;SDS011;4590;51.462;6.692;2023-04-01T08:23:55;3.13;;;2.60;;
9108;SDS011;4590;51.462;6.692;2023-04-01T08:26:35;3.38;;;2.70;;
9108;SDS011;4590;51.462;6.692;2023-04-01T08:29:10;3.58;;;2.40;;
9108;SDS011;4590;51.462;6.692;2023-04-01T08:34:15;3.58;;;2.60;;
9108;SDS011;4590;51.462;6.692;2023-04-01T08:36:46;3.60;;;2.60;;
9108;SDS011;4590;51.462;6.692;2023-04-01T08:39:21;3.58;;;2.33;;
9108;SDS011;4590;51.462;6.692;2023-04-01T08:44:56;3.38;;;2.58;;
9108;SDS011;4590;51.462;6.692;2023-04-01T08:53:41;4.00;;;2.50;;
9108;SDS011;4590;51.462;6.692;2023-04-01T08:56:42;3.28;;;2.50;;
9108;SDS011;4590;51.462;6.692;2023-04-01T09:02:13;4.40;;;3.17;;
9108;SDS011;4590;51.462;6.692;2023-04-01T09:05:46;4.38;;;3.25;;
9108;SDS011;4590;51.462;6.692;2023-04-01T09:10:40;4.55;;;3.70;;
9108;SDS011;4590;51.462;6.692;2023-04-01T09:27:04;5.15;;;4.10;;
9108;SDS011;4590;51.462;6.692;2023-04-01T09:32:26;10.18;;;4.78;;
9108;SDS011;4590;51.462;6.692;2023-04-01T09:40:52;6.32;;;4.43;;
9108;SDS011;4590;51.462;6.692;2023-04-01T09:46:11;6.30;;;4.60;;
9108;SDS011;4590;51.462;6.692;2023-04-01T09:51:52;6.55;;;5.13;;
9108;SDS011;4590;51.462;6.692;2023-04-01T09:54:39;5.43;;;4.65;;
9108;SDS011;4590;51.462;6.692;2023-04-01T10:30:05;5.25;;;4.32;;
9108;SDS011;4590;51.462;6.692;2023-04-01T10:47:48;55.45;;;28.98;;
9108;SDS011;4590;51.462;6.692;2023-04-01T10:53:41;21.33;;;18.92;;
9108;SDS011;4590;51.462;6.692;2023-04-01T10:56:31;39.97;;;22.42;;
9108;SDS011;4590;51.462;6.692;2023-04-01T10:59:15;22.73;;;13.77;;
9108;SDS011;4590;51.462;6.692;2023-04-01T11:16:47;8.75;;;6.35;;
9108;SDS011;4590;51.462;6.692;2023-04-01T11:58:14;10.05;;;7.20;;
9108;SDS011;4590;51.462;6.692;2023-04-01T12:06:40;9.00;;;7.05;;
9108;SDS011;4590;51.462;6.692;2023-04-01T12:17:45;8.65;;;7.07;;
9108;SDS011;4590;51.462;6.692;2023-04-01T12:20:21;6.30;;;5.57;;
9108;SDS011;4590;51.462;6.692;2023-04-01T12:23:04;7.88;;;6.53;;
9108;SDS011;4590;51.462;6.692;2023-04-01T12:25:54;7.40;;;6.47;;
9108;SDS011;4590;51.462;6.692;2023-04-01T12:32:09;5.45;;;4.32;;
9108;SDS011;4590;51.462;6.692;2023-04-01T12:34:54;5.78;;;4.65;;
9108;SDS011;4590;51.462;6.692;2023-04-01T12:39:58;7.17;;;5.67;;
9108;SDS011;4590;51.462;6.692;2023-04-01T12:42:50;6.90;;;4.78;;
9108;SDS011;4590;51.462;6.692;2023-04-01T12:48:39;7.15;;;5.03;;
9108;SDS011;4590;51.462;6.692;2023-04-01T12:56:50;6.30;;;4.43;;
9108;SDS011;4590;51.462;6.692;2023-04-01T13:02:27;6.55;;;5.38;;
9108;SDS011;4590;51.462;6.692;2023-04-01T13:05:11;6.75;;;5.03;;
9108;SDS011;4590;51.462;6.692;2023-04-01T13:10:38;7.93;;;5.25;;
9108;SDS011;4590;51.462;6.692;2023-04-01T13:13:28;6.78;;;5.38;;
9108;SDS011;4590;51.462;6.692;2023-04-01T13:16:29;7.10;;;5.28;;
9108;SDS011;4590;51.462;6.692;2023-04-01T13:19:21;5.28;;;4.38;;
9108;SDS011;4590;51.462;6.692;2023-04-01T13:27:18;6.13;;;4.47;;
9108;SDS011;4590;51.462;6.692;2023-04-01T13:35:06;5.65;;;4.53;;
9108;SDS011;4590;51.462;6.692;2023-04-01T13:43:14;7.38;;;5.25;;
9108;SDS011;4590;51.462;6.692;2023-04-01T13:48:39;9.85;;;6.05;;
9108;SDS011;4590;51.462;6.692;2023-04-01T13:56:50;7.53;;;5.10;;
9108;SDS011;4590;51.462;6.692;2023-04-01T13:59:40;6.35;;;4.60;;
9108;SDS011;4590;51.462;6.692;2023-04-01T14:02:28;8.23;;;5.57;;
9108;SDS011;4590;51.462;6.692;2023-04-01T14:05:25;6.28;;;4.63;;
9108;SDS011;4590;51.462;6.692;2023-04-01T14:19:40;5.55;;;4.35;;
9108;SDS011;4590;51.462;6.692;2023-04-01T14:25:06;7.88;;;4.95;;
9108;SDS011;4590;51.462;6.692;2023-04-01T14:27:59;5.53;;;4.35;;
9108;SDS011;4590;51.462;6.692;2023-04-01T14:36:41;5.47;;;4.40;;
9108;SDS011;4590;51.462;6.692;2023-04-01T14:44:38;5.90;;;5.13;;
9108;SDS011;4590;51.462;6.692;2023-04-01T14:50:28;7.65;;;4.72;;
9108;SDS011;4590;51.462;6.692;2023-04-01T14:53:11;5.00;;;4.00;;
9108;SDS011;4590;51.462;6.692;2023-04-01T14:55:50;6.78;;;4.25;;
9108;SDS011;4590;51.462;6.692;2023-04-01T14:58:21;5.10;;;4.50;;
9108;SDS011;4590;51.462;6.692;2023-04-01T15:03:36;10.68;;;7.35;;
9108;SDS011;4590;51.462;6.692;2023-04-01T15:06:27;12.13;;;8.40;;
9108;SDS011;4590;51.462;6.692;2023-04-01T15:24:07;6.13;;;4.28;;
9108;SDS011;4590;51.462;6.692;2023-04-01T15:26:47;7.18;;;5.53;;
9108;SDS011;4590;51.462;6.692;2023-04-01T15:33:06;7.88;;;6.07;;
9108;SDS011;4590;51.462;6.692;2023-04-01T15:35:41;9.35;;;6.03;;
9108;SDS011;4590;51.462;6.692;2023-04-01T15:41:10;5.93;;;4.97;;
9108;SDS011;4590;51.462;6.692;2023-04-01T15:43:48;5.70;;;4.82;;
9108;SDS011;4590;51.462;6.692;2023-04-01T15:57:08;5.78;;;4.40;;
9108;SDS011;4590;51.462;6.692;2023-04-01T16:10:46;4.78;;;4.28;;
9108;SDS011;4590;51.462;6.692;2023-04-01T16:24:02;4.50;;;4.03;;
9108;SDS011;4590;51.462;6.692;2023-04-01T16:35:41;6.15;;;4.75;;
9108;SDS011;4590;51.462;6.692;2023-04-01T16:47:56;11.82;;;8.65;;
9108;SDS011;4590;51.462;6.692;2023-04-01T16:50:48;10.07;;;7.65;;
9108;SDS011;4590;51.462;6.692;2023-04-01T16:53:25;10.90;;;8.30;;
9108;SDS011;4590;51.462;6.692;2023-04-01T16:58:27;12.53;;;10.63;;
9108;SDS011;4590;51.462;6.692;2023-04-01T17:01:20;8.88;;;6.93;;
9108;SDS011;4590;51.462;6.692;2023-04-01T17:37:18;14.05;;;9.82;;
9108;SDS011;4590;51.462;6.692;2023-04-01T17:49:57;18.67;;;13.73;;
9108;SDS011;4590;51.462;6.692;2023-04-01T17:56:17;11.68;;;9.35;;
9108;SDS011;4590;51.462;6.692;2023-04-01T18:01:34;16.35;;;12.02;;
9108;SDS011;4590;51.462;6.692;2023-04-01T18:04:40;12.68;;;8.73;;
9108;SDS011;4590;51.462;6.692;2023-04-01T18:11:09;21.38;;;15.13;;
9108;SDS011;4590;51.462;6.692;2023-04-01T18:13:37;12.73;;;9.38;;
9108;SDS011;4590;51.462;6.692;2023-04-01T18:22:42;9.02;;;7.10;;
9108;SDS011;4590;51.462;6.692;2023-04-01T18:32:08;9.63;;;7.93;;
9108;SDS011;4590;51.462;6.692;2023-04-01T18:54:02;8.63;;;6.93;;
9108;SDS011;4590;51.462;6.692;2023-04-01T19:17:24;5.47;;;2.65;;
9108;SDS011;4590;51.462;6.692;2023-04-01T19:20:19;2.33;;;1.80;;
9108;SDS011;4590;51.462;6.692;2023-04-01T19:25:56;2.35;;;2.15;;
9108;SDS011;4590;51.462;6.692;2023-04-01T19:43:13;2.00;;;1.80;;
9108;SDS011;4590;51.462;6.692;2023-04-01T20:01:51;15.45;;;5.88;;
9108;SDS011;4590;51.462;6.692;2023-04-01T20:04:44;8.50;;;4.57;;
9108;SDS011;4590;51.462;6.692;2023-04-01T20:07:28;6.03;;;3.47;;
9108;SDS011;4590;51.462;6.692;2023-04-01T20:10:06;5.30;;;3.10;;
9108;SDS011;4590;51.462;6.692;2023-04-01T20:22:02;2.50;;;2.20;;
9108;SDS011;4590;51.462;6.692;2023-04-01T20:24:50;3.88;;;2.60;;
9108;SDS011;4590;51.462;6.692;2023-04-01T20:27:22;6.35;;;3.90;;
9108;SDS011;4590;51.462;6.692;2023-04-01T20:33:48;4.82;;;3.25;;
9108;SDS011;4590;51.462;6.692;2023-04-01T20:38:51;3.83;;;3.30;;
9108;SDS011;4590;51.462;6.692;2023-04-01T20:44:47;3.92;;;3.28;;
9108;SDS011;4590;51.462;6.692;2023-04-01T20:59:46;4.93;;;3.10;;
9108;SDS011;4590;51.462;6.692;2023-04-01T21:02:36;4.93;;;3.10;;
9108;SDS011;4590;51.462;6.692;2023-04-01T21:08:53;4.22;;;2.97;;
9108;SDS011;4590;51.462;6.692;2023-04-01T21:12:03;3.65;;;2.50;;
9108;SDS011;4590;51.462;6.692;2023-04-01T21:29:24;6.95;;;3.75;;
9108;SDS011;4590;51.462;6.692;2023-04-01T21:31:59;7.70;;;4.25;;
